sensor_id;sensor_type;location;lat;lon;timestamp;temperature;humidity
29551;DHT22;16488;52.396;10.696;2023-04-07T00:00:15;6.30;78.50
29551;DHT22;16488;52.396;10.696;2023-04-07T00:02:42;6.40;78.20
29551;DHT22;16488;52.396;10.696;2023-04-07T00:05:07;6.30;78.60
29551;DHT22;16488;52.396;10.696;2023-04-07T00:07:33;6.30;78.60
29551;DHT22;16488;52.396;10.696;2023-04-07T00:09:58;6.30;78.60
29551;DHT22;16488;52.396;10.696;2023-04-07T00:12:24;6.20;79.80
29551;DHT22;16488;52.396;10.696;2023-04-07T00:14:49;6.20;79.10
29551;DHT22;16488;52.396;10.696;2023-04-07T00:17:15;6.10;79.40
29551;DHT22;16488;52.396;10.696;2023-04-07T00:19:40;6.20;79.30
29551;DHT22;16488;52.396;10.696;2023-04-07T00:22:06;6.20;79.50
29551;DHT22;16488;52.396;10.696;2023-04-07T00:24:31;6.10;79.50
29551;DHT22;16488;52.396;10.696;2023-04-07T00:26:57;6.10;79.50
29551;DHT22;16488;52.396;10.696;2023-04-07T00:29:22;6.00;80.20
29551;DHT22;16488;52.396;10.696;2023-04-07T00:31:48;5.90;80.60
29551;DHT22;16488;52.396;10.696;2023-04-07T00:34:13;5.90;80.20
29551;DHT22;16488;52.396;10.696;2023-04-07T00:36:39;5.90;80.30
29551;DHT22;16488;52.396;10.696;2023-04-07T00:39:05;5.80;81.00
29551;DHT22;16488;52.396;10.696;2023-04-07T00:41:32;5.80;81.10
29551;DHT22;16488;52.396;10.696;2023-04-07T00:43:58;5.70;81.00
29551;DHT22;16488;52.396;10.696;2023-04-07T00:46:25;5.70;81.20
29551;DHT22;16488;52.396;10.696;2023-04-07T00:48:50;5.60;81.40
29551;DHT22;16488;52.396;10.696;2023-04-07T00:51:17;5.60;81.40
29551;DHT22;16488;52.396;10.696;2023-04-07T00:53:44;5.60;81.60
29551;DHT22;16488;52.396;10.696;2023-04-07T00:56:09;5.50;82.00
29551;DHT22;16488;52.396;10.696;2023-04-07T00:58:35;5.50;81.80
29551;DHT22;16488;52.396;10.696;2023-04-07T01:01:06;5.50;82.10
29551;DHT22;16488;52.396;10.696;2023-04-07T01:03:34;5.50;82.20
29551;DHT22;16488;52.396;10.696;2023-04-07T01:06:01;5.40;81.90
29551;DHT22;16488;52.396;10.696;2023-04-07T01:08:37;5.40;81.80
29551;DHT22;16488;52.396;10.696;2023-04-07T01:11:07;5.50;81.90
29551;DHT22;16488;52.396;10.696;2023-04-07T01:13:35;5.50;82.20
29551;DHT22;16488;52.396;10.696;2023-04-07T01:16:03;5.40;82.00
29551;DHT22;16488;52.396;10.696;2023-04-07T01:18:30;5.30;83.20
29551;DHT22;16488;52.396;10.696;2023-04-07T01:20:59;5.30;82.80
29551;DHT22;16488;52.396;10.696;2023-04-07T01:31:20;5.20;83.60
29551;DHT22;16488;52.396;10.696;2023-04-07T01:33:47;5.10;83.80
29551;DHT22;16488;52.396;10.696;2023-04-07T01:36:14;5.10;84.00
29551;DHT22;16488;52.396;10.696;2023-04-07T01:38:40;5.00;84.10
29551;DHT22;16488;52.396;10.696;2023-04-07T01:41:06;5.00;84.40
29551;DHT22;16488;52.396;10.696;2023-04-07T01:43:33;4.90;84.80
29551;DHT22;16488;52.396;10.696;2023-04-07T01:45:58;4.90;84.90
29551;DHT22;16488;52.396;10.696;2023-04-07T01:48:24;4.80;85.20
29551;DHT22;16488;52.396;10.696;2023-04-07T01:50:50;4.80;84.90
29551;DHT22;16488;52.396;10.696;2023-04-07T01:53:16;4.80;84.80
29551;DHT22;16488;52.396;10.696;2023-04-07T01:55:42;4.80;84.70
29551;DHT22;16488;52.396;10.696;2023-04-07T01:58:08;4.80;84.70
29551;DHT22;16488;52.396;10.696;2023-04-07T02:00:33;4.70;84.90
29551;DHT22;16488;52.396;10.696;2023-04-07T02:03:03;4.70;85.00
29551;DHT22;16488;52.396;10.696;2023-04-07T02:05:29;4.80;85.00
29551;DHT22;16488;52.396;10.696;2023-04-07T02:08:00;4.70;85.60
29551;DHT22;16488;52.396;10.696;2023-04-07T02:10:45;4.70;85.60
29551;DHT22;16488;52.396;10.696;2023-04-07T02:13:15;4.50;86.30
29551;DHT22;16488;52.396;10.696;2023-04-07T02:15:41;4.50;86.20
29551;DHT22;16488;52.396;10.696;2023-04-07T02:18:06;4.50;86.50
29551;DHT22;16488;52.396;10.696;2023-04-07T02:20:34;4.50;86.90
29551;DHT22;16488;52.396;10.696;2023-04-07T02:23:01;4.50;86.70
29551;DHT22;16488;52.396;10.696;2023-04-07T02:25:27;4.40;86.50
29551;DHT22;16488;52.396;10.696;2023-04-07T02:27:53;4.40;86.50
29551;DHT22;16488;52.396;10.696;2023-04-07T02:30:19;4.40;86.80
29551;DHT22;16488;52.396;10.696;2023-04-07T02:32:45;4.40;86.90
29551;DHT22;16488;52.396;10.696;2023-04-07T02:35:10;4.30;87.20
29551;DHT22;16488;52.396;10.696;2023-04-07T02:37:36;4.30;87.00
29551;DHT22;16488;52.396;10.696;2023-04-07T02:40:02;4.20;87.50
29551;DHT22;16488;52.396;10.696;2023-04-07T02:42:28;4.30;87.60
29551;DHT22;16488;52.396;10.696;2023-04-07T02:44:53;4.20;88.20
29551;DHT22;16488;52.396;10.696;2023-04-07T02:47:19;4.20;89.10
29551;DHT22;16488;52.396;10.696;2023-04-07T02:49:45;4.00;90.00
29551;DHT22;16488;52.396;10.696;2023-04-07T02:52:11;3.90;90.50
29551;DHT22;16488;52.396;10.696;2023-04-07T02:54:36;3.70;91.10
29551;DHT22;16488;52.396;10.696;2023-04-07T02:57:02;3.50;91.60
29551;DHT22;16488;52.396;10.696;2023-04-07T02:59:28;3.40;92.50
29551;DHT22;16488;52.396;10.696;2023-04-07T03:01:53;3.30;92.70
29551;DHT22;16488;52.396;10.696;2023-04-07T03:04:19;3.20;93.00
29551;DHT22;16488;52.396;10.696;2023-04-07T03:06:44;3.10;93.50
29551;DHT22;16488;52.396;10.696;2023-04-07T03:09:10;3.00;93.90
29551;DHT22;16488;52.396;10.696;2023-04-07T03:11:36;2.90;94.40
29551;DHT22;16488;52.396;10.696;2023-04-07T03:14:02;2.90;94.60
29551;DHT22;16488;52.396;10.696;2023-04-07T03:16:28;2.90;95.00
29551;DHT22;16488;52.396;10.696;2023-04-07T03:18:54;2.80;95.00
29551;DHT22;16488;52.396;10.696;2023-04-07T03:21:20;2.80;95.20
29551;DHT22;16488;52.396;10.696;2023-04-07T03:23:45;2.70;95.50
29551;DHT22;16488;52.396;10.696;2023-04-07T03:26:11;2.50;95.90
29551;DHT22;16488;52.396;10.696;2023-04-07T03:28:36;2.50;96.20
29551;DHT22;16488;52.396;10.696;2023-04-07T03:31:02;2.50;96.40
29551;DHT22;16488;52.396;10.696;2023-04-07T03:33:27;2.50;96.60
29551;DHT22;16488;52.396;10.696;2023-04-07T03:35:53;2.40;96.90
29551;DHT22;16488;52.396;10.696;2023-04-07T03:38:18;2.40;97.10
29551;DHT22;16488;52.396;10.696;2023-04-07T03:40:45;2.20;97.50
29551;DHT22;16488;52.396;10.696;2023-04-07T03:43:11;2.10;98.10
29551;DHT22;16488;52.396;10.696;2023-04-07T03:45:40;2.10;98.50
29551;DHT22;16488;52.396;10.696;2023-04-07T03:48:05;2.00;98.90
29551;DHT22;16488;52.396;10.696;2023-04-07T03:50:34;2.00;99.30
29551;DHT22;16488;52.396;10.696;2023-04-07T03:53:00;1.90;99.70
29551;DHT22;16488;52.396;10.696;2023-04-07T03:55:26;1.90;99.80
29551;DHT22;16488;52.396;10.696;2023-04-07T03:57:51;1.90;99.90
29551;DHT22;16488;52.396;10.696;2023-04-07T04:00:17;1.80;99.90
29551;DHT22;16488;52.396;10.696;2023-04-07T04:02:43;1.80;99.90
29551;DHT22;16488;52.396;10.696;2023-04-07T04:05:08;1.80;99.90
29551;DHT22;16488;52.396;10.696;2023-04-07T04:07:33;1.70;99.90
29551;DHT22;16488;52.396;10.696;2023-04-07T04:10:00;1.70;99.90
29551;DHT22;16488;52.396;10.696;2023-04-07T04:12:26;1.70;99.90
29551;DHT22;16488;52.396;10.696;2023-04-07T04:14:51;1.70;99.90
29551;DHT22;16488;52.396;10.696;2023-04-07T04:17:17;1.70;99.90
29551;DHT22;16488;52.396;10.696;2023-04-07T04:19:42;1.60;99.90
29551;DHT22;16488;52.396;10.696;2023-04-07T04:22:08;1.60;99.90
29551;DHT22;16488;52.396;10.696;2023-04-07T04:24:33;1.60;99.90
29551;DHT22;16488;52.396;10.696;2023-04-07T04:26:59;1.50;99.90
29551;DHT22;16488;52.396;10.696;2023-04-07T04:29:26;1.50;99.90
29551;DHT22;16488;52.396;10.696;2023-04-07T04:31:51;1.50;99.90
29551;DHT22;16488;52.396;10.696;2023-04-07T04:34:17;1.60;99.90
29551;DHT22;16488;52.396;10.696;2023-04-07T04:36:43;1.60;99.90
29551;DHT22;16488;52.396;10.696;2023-04-07T04:39:10;1.60;99.90
29551;DHT22;16488;52.396;10.696;2023-04-07T04:41:35;1.60;99.90
29551;DHT22;16488;52.396;10.696;2023-04-07T04:44:01;1.60;99.90
29551;DHT22;16488;52.396;10.696;2023-04-07T04:46:26;1.60;99.90
29551;DHT22;16488;52.396;10.696;2023-04-07T04:48:52;1.60;99.90
29551;DHT22;16488;52.396;10.696;2023-04-07T04:51:18;1.60;99.90
29551;DHT22;16488;52.396;10.696;2023-04-07T04:53:44;1.60;99.90
29551;DHT22;16488;52.396;10.696;2023-04-07T04:56:10;1.60;99.90
29551;DHT22;16488;52.396;10.696;2023-04-07T04:58:36;1.60;99.90
29551;DHT22;16488;52.396;10.696;2023-04-07T05:01:04;1.70;99.90
29551;DHT22;16488;52.396;10.696;2023-04-07T05:03:30;1.70;99.90
29551;DHT22;16488;52.396;10.696;2023-04-07T05:05:55;1.80;99.90
29551;DHT22;16488;52.396;10.696;2023-04-07T05:08:21;2.00;99.90
29551;DHT22;16488;52.396;10.696;2023-04-07T05:10:46;2.10;99.90
29551;DHT22;16488;52.396;10.696;2023-04-07T05:13:12;2.20;99.90
29551;DHT22;16488;52.396;10.696;2023-04-07T05:15:39;2.20;99.90
29551;DHT22;16488;52.396;10.696;2023-04-07T05:18:05;2.30;99.90
29551;DHT22;16488;52.396;10.696;2023-04-07T05:20:30;2.30;99.90
29551;DHT22;16488;52.396;10.696;2023-04-07T05:22:56;2.30;99.90
29551;DHT22;16488;52.396;10.696;2023-04-07T05:25:21;2.40;99.90
29551;DHT22;16488;52.396;10.696;2023-04-07T05:27:48;2.40;99.90
29551;DHT22;16488;52.396;10.696;2023-04-07T05:30:14;2.40;99.70
29551;DHT22;16488;52.396;10.696;2023-04-07T05:32:40;2.50;99.60
29551;DHT22;16488;52.396;10.696;2023-04-07T05:35:06;2.50;99.50
29551;DHT22;16488;52.396;10.696;2023-04-07T05:37:31;2.50;99.90
29551;DHT22;16488;52.396;10.696;2023-04-07T05:39:57;2.60;99.80
29551;DHT22;16488;52.396;10.696;2023-04-07T05:42:22;2.60;99.80
29551;DHT22;16488;52.396;10.696;2023-04-07T05:44:48;2.70;99.20
29551;DHT22;16488;52.396;10.696;2023-04-07T05:47:13;2.80;98.90
29551;DHT22;16488;52.396;10.696;2023-04-07T05:49:39;2.80;98.80
29551;DHT22;16488;52.396;10.696;2023-04-07T05:52:10;2.90;98.50
29551;DHT22;16488;52.396;10.696;2023-04-07T05:54:36;2.90;98.30
29551;DHT22;16488;52.396;10.696;2023-04-07T05:57:01;3.10;98.20
29551;DHT22;16488;52.396;10.696;2023-04-07T05:59:28;3.10;97.70
29551;DHT22;16488;52.396;10.696;2023-04-07T06:01:53;3.30;97.70
29551;DHT22;16488;52.396;10.696;2023-04-07T06:04:19;3.40;97.70
29551;DHT22;16488;52.396;10.696;2023-04-07T06:06:44;3.50;97.40
29551;DHT22;16488;52.396;10.696;2023-04-07T06:09:10;3.50;97.10
29551;DHT22;16488;52.396;10.696;2023-04-07T06:11:35;3.60;97.00
29551;DHT22;16488;52.396;10.696;2023-04-07T06:14:01;3.70;96.60
29551;DHT22;16488;52.396;10.696;2023-04-07T06:16:26;3.80;96.50
29551;DHT22;16488;52.396;10.696;2023-04-07T06:18:52;4.00;96.50
29551;DHT22;16488;52.396;10.696;2023-04-07T06:21:17;4.10;96.30
29551;DHT22;16488;52.396;10.696;2023-04-07T06:23:43;4.20;96.10
29551;DHT22;16488;52.396;10.696;2023-04-07T06:26:09;4.40;95.40
29551;DHT22;16488;52.396;10.696;2023-04-07T06:28:35;4.50;95.10
29551;DHT22;16488;52.396;10.696;2023-04-07T06:31:00;4.70;95.00
29551;DHT22;16488;52.396;10.696;2023-04-07T06:33:26;4.80;94.50
29551;DHT22;16488;52.396;10.696;2023-04-07T06:35:52;5.00;94.10
29551;DHT22;16488;52.396;10.696;2023-04-07T06:38:18;5.10;94.50
29551;DHT22;16488;52.396;10.696;2023-04-07T06:40:43;5.20;94.10
29551;DHT22;16488;52.396;10.696;2023-04-07T06:43:09;5.20;93.60
29551;DHT22;16488;52.396;10.696;2023-04-07T06:45:34;5.30;93.10
29551;DHT22;16488;52.396;10.696;2023-04-07T06:48:00;5.30;93.10
29551;DHT22;16488;52.396;10.696;2023-04-07T06:50:26;5.40;93.10
29551;DHT22;16488;52.396;10.696;2023-04-07T06:52:51;5.50;93.30
29551;DHT22;16488;52.396;10.696;2023-04-07T06:55:25;5.30;92.90
29551;DHT22;16488;52.396;10.696;2023-04-07T06:57:51;5.40;93.00
29551;DHT22;16488;52.396;10.696;2023-04-07T07:00:17;5.30;92.70
29551;DHT22;16488;52.396;10.696;2023-04-07T07:02:43;5.40;93.20
29551;DHT22;16488;52.396;10.696;2023-04-07T07:05:08;5.50;92.70
29551;DHT22;16488;52.396;10.696;2023-04-07T07:07:36;5.60;92.60
29551;DHT22;16488;52.396;10.696;2023-04-07T07:10:01;5.60;92.60
29551;DHT22;16488;52.396;10.696;2023-04-07T07:12:27;5.70;92.70
29551;DHT22;16488;52.396;10.696;2023-04-07T07:14:52;5.70;92.70
29551;DHT22;16488;52.396;10.696;2023-04-07T07:17:18;5.80;92.50
29551;DHT22;16488;52.396;10.696;2023-04-07T07:19:43;5.70;92.20
29551;DHT22;16488;52.396;10.696;2023-04-07T07:22:09;5.80;92.40
29551;DHT22;16488;52.396;10.696;2023-04-07T07:24:35;5.90;92.20
29551;DHT22;16488;52.396;10.696;2023-04-07T07:27:00;5.90;92.20
29551;DHT22;16488;52.396;10.696;2023-04-07T07:29:28;5.90;92.20
29551;DHT22;16488;52.396;10.696;2023-04-07T07:31:53;6.10;91.60
29551;DHT22;16488;52.396;10.696;2023-04-07T07:34:19;6.10;91.70
29551;DHT22;16488;52.396;10.696;2023-04-07T07:36:45;6.20;91.20
29551;DHT22;16488;52.396;10.696;2023-04-07T07:39:10;6.30;91.10
29551;DHT22;16488;52.396;10.696;2023-04-07T07:41:36;6.30;90.90
29551;DHT22;16488;52.396;10.696;2023-04-07T07:44:01;6.40;90.60
29551;DHT22;16488;52.396;10.696;2023-04-07T07:46:27;6.50;90.70
29551;DHT22;16488;52.396;10.696;2023-04-07T07:48:53;6.60;88.90
29551;DHT22;16488;52.396;10.696;2023-04-07T07:51:19;6.70;87.70
29551;DHT22;16488;52.396;10.696;2023-04-07T07:53:44;6.90;87.50
29551;DHT22;16488;52.396;10.696;2023-04-07T07:56:10;6.90;88.00
29551;DHT22;16488;52.396;10.696;2023-04-07T07:58:36;6.90;88.40
29551;DHT22;16488;52.396;10.696;2023-04-07T08:01:01;7.00;87.90
29551;DHT22;16488;52.396;10.696;2023-04-07T08:03:27;7.10;87.80
29551;DHT22;16488;52.396;10.696;2023-04-07T08:05:52;7.10;87.70
29551;DHT22;16488;52.396;10.696;2023-04-07T08:08:18;7.10;88.20
29551;DHT22;16488;52.396;10.696;2023-04-07T08:10:43;7.40;88.20
29551;DHT22;16488;52.396;10.696;2023-04-07T08:13:09;7.40;86.80
29551;DHT22;16488;52.396;10.696;2023-04-07T08:15:34;7.50;88.80
29551;DHT22;16488;52.396;10.696;2023-04-07T08:18:00;7.60;89.40
29551;DHT22;16488;52.396;10.696;2023-04-07T08:20:28;7.60;87.80
29551;DHT22;16488;52.396;10.696;2023-04-07T08:22:54;7.60;86.70
29551;DHT22;16488;52.396;10.696;2023-04-07T08:25:19;7.60;87.00
29551;DHT22;16488;52.396;10.696;2023-04-07T08:27:45;7.50;86.90
29551;DHT22;16488;52.396;10.696;2023-04-07T08:30:11;7.70;88.40
29551;DHT22;16488;52.396;10.696;2023-04-07T08:32:37;7.90;87.70
29551;DHT22;16488;52.396;10.696;2023-04-07T08:35:03;8.10;88.50
29551;DHT22;16488;52.396;10.696;2023-04-07T08:37:29;8.20;87.00
29551;DHT22;16488;52.396;10.696;2023-04-07T08:39:54;8.10;85.60
29551;DHT22;16488;52.396;10.696;2023-04-07T08:42:20;8.10;86.00
29551;DHT22;16488;52.396;10.696;2023-04-07T08:44:47;8.10;86.10
29551;DHT22;16488;52.396;10.696;2023-04-07T08:47:14;8.20;85.40
29551;DHT22;16488;52.396;10.696;2023-04-07T08:49:43;8.40;85.60
29551;DHT22;16488;52.396;10.696;2023-04-07T08:52:09;8.60;85.10
29551;DHT22;16488;52.396;10.696;2023-04-07T08:54:35;8.70;84.20
29551;DHT22;16488;52.396;10.696;2023-04-07T08:57:01;8.80;84.10
29551;DHT22;16488;52.396;10.696;2023-04-07T08:59:28;9.00;81.80
29551;DHT22;16488;52.396;10.696;2023-04-07T09:01:54;9.10;80.80
29551;DHT22;16488;52.396;10.696;2023-04-07T09:04:20;9.20;79.20
29551;DHT22;16488;52.396;10.696;2023-04-07T09:06:47;9.20;80.80
29551;DHT22;16488;52.396;10.696;2023-04-07T09:09:13;9.30;79.10
29551;DHT22;16488;52.396;10.696;2023-04-07T09:11:39;9.50;78.70
29551;DHT22;16488;52.396;10.696;2023-04-07T09:14:05;10.00;77.40
29551;DHT22;16488;52.396;10.696;2023-04-07T09:16:31;10.30;75.20
29551;DHT22;16488;52.396;10.696;2023-04-07T09:18:56;11.10;75.00
29551;DHT22;16488;52.396;10.696;2023-04-07T09:21:22;11.80;72.40
29551;DHT22;16488;52.396;10.696;2023-04-07T09:23:48;12.00;67.90
29551;DHT22;16488;52.396;10.696;2023-04-07T09:28:45;11.90;70.20
29551;DHT22;16488;52.396;10.696;2023-04-07T09:31:11;12.20;68.70
29551;DHT22;16488;52.396;10.696;2023-04-07T09:33:37;12.80;66.90
29551;DHT22;16488;52.396;10.696;2023-04-07T09:36:03;13.80;67.20
29551;DHT22;16488;52.396;10.696;2023-04-07T09:38:34;13.30;62.70
29551;DHT22;16488;52.396;10.696;2023-04-07T09:41:09;13.50;64.40
29551;DHT22;16488;52.396;10.696;2023-04-07T09:43:36;13.20;57.20
29551;DHT22;16488;52.396;10.696;2023-04-07T09:46:08;12.30;61.50
29551;DHT22;16488;52.396;10.696;2023-04-07T09:48:35;12.30;62.70
29551;DHT22;16488;52.396;10.696;2023-04-07T09:51:04;12.60;65.00
29551;DHT22;16488;52.396;10.696;2023-04-07T09:53:39;12.90;59.60
29551;DHT22;16488;52.396;10.696;2023-04-07T09:56:05;13.00;60.00
29551;DHT22;16488;52.396;10.696;2023-04-07T09:58:31;13.70;60.20
29551;DHT22;16488;52.396;10.696;2023-04-07T10:00:56;14.10;58.20
29551;DHT22;16488;52.396;10.696;2023-04-07T10:03:22;14.20;57.70
29551;DHT22;16488;52.396;10.696;2023-04-07T10:05:48;14.70;55.90
29551;DHT22;16488;52.396;10.696;2023-04-07T10:08:13;14.40;56.10
29551;DHT22;16488;52.396;10.696;2023-04-07T10:10:40;13.80;56.20
29551;DHT22;16488;52.396;10.696;2023-04-07T10:13:06;13.80;56.10
29551;DHT22;16488;52.396;10.696;2023-04-07T10:15:32;14.50;56.80
29551;DHT22;16488;52.396;10.696;2023-04-07T10:17:57;15.60;54.30
29551;DHT22;16488;52.396;10.696;2023-04-07T10:20:23;16.10;52.30
29551;DHT22;16488;52.396;10.696;2023-04-07T10:22:50;15.10;53.20
29551;DHT22;16488;52.396;10.696;2023-04-07T10:25:17;14.20;56.10
29551;DHT22;16488;52.396;10.696;2023-04-07T10:27:44;14.10;56.10
29551;DHT22;16488;52.396;10.696;2023-04-07T10:30:16;13.90;57.60
29551;DHT22;16488;52.396;10.696;2023-04-07T10:32:49;13.50;56.70
29551;DHT22;16488;52.396;10.696;2023-04-07T10:35:15;13.70;56.50
29551;DHT22;16488;52.396;10.696;2023-04-07T10:37:46;13.90;56.70
29551;DHT22;16488;52.396;10.696;2023-04-07T10:40:27;13.70;58.10
29551;DHT22;16488;52.396;10.696;2023-04-07T10:42:52;14.20;56.50
29551;DHT22;16488;52.396;10.696;2023-04-07T10:45:18;14.10;55.30
29551;DHT22;16488;52.396;10.696;2023-04-07T10:50:29;14.20;53.70
29551;DHT22;16488;52.396;10.696;2023-04-07T10:53:07;14.50;55.50
29551;DHT22;16488;52.396;10.696;2023-04-07T10:55:33;14.50;55.00
29551;DHT22;16488;52.396;10.696;2023-04-07T10:58:13;14.70;53.40
29551;DHT22;16488;52.396;10.696;2023-04-07T11:00:38;14.50;53.40
29551;DHT22;16488;52.396;10.696;2023-04-07T11:03:10;14.90;55.70
29551;DHT22;16488;52.396;10.696;2023-04-07T11:05:40;15.50;52.90
29551;DHT22;16488;52.396;10.696;2023-04-07T11:08:06;15.40;50.90
29551;DHT22;16488;52.396;10.696;2023-04-07T11:10:32;15.30;49.80
29551;DHT22;16488;52.396;10.696;2023-04-07T11:12:58;14.70;50.30
29551;DHT22;16488;52.396;10.696;2023-04-07T11:15:24;15.10;50.70
29551;DHT22;16488;52.396;10.696;2023-04-07T11:23:12;15.90;49.00
29551;DHT22;16488;52.396;10.696;2023-04-07T11:25:37;15.30;51.60
29551;DHT22;16488;52.396;10.696;2023-04-07T11:28:03;15.40;51.20
29551;DHT22;16488;52.396;10.696;2023-04-07T11:30:29;14.90;50.60
29551;DHT22;16488;52.396;10.696;2023-04-07T11:32:55;14.40;52.70
29551;DHT22;16488;52.396;10.696;2023-04-07T11:35:21;14.10;53.00
29551;DHT22;16488;52.396;10.696;2023-04-07T11:37:47;14.00;52.50
29551;DHT22;16488;52.396;10.696;2023-04-07T11:40:12;14.80;52.60
29551;DHT22;16488;52.396;10.696;2023-04-07T11:42:41;15.30;49.40
29551;DHT22;16488;52.396;10.696;2023-04-07T11:45:16;15.40;51.50
29551;DHT22;16488;52.396;10.696;2023-04-07T11:47:42;15.50;50.50
29551;DHT22;16488;52.396;10.696;2023-04-07T11:50:08;15.70;50.00
29551;DHT22;16488;52.396;10.696;2023-04-07T11:52:44;16.20;49.30
29551;DHT22;16488;52.396;10.696;2023-04-07T11:55:43;16.70;48.70
29551;DHT22;16488;52.396;10.696;2023-04-07T11:58:05;17.00;47.80
29551;DHT22;16488;52.396;10.696;2023-04-07T12:00:30;17.30;48.20
29551;DHT22;16488;52.396;10.696;2023-04-07T12:02:56;18.10;47.50
29551;DHT22;16488;52.396;10.696;2023-04-07T12:05:21;18.00;45.60
29551;DHT22;16488;52.396;10.696;2023-04-07T12:07:52;17.50;46.20
29551;DHT22;16488;52.396;10.696;2023-04-07T12:10:19;17.40;48.10
29551;DHT22;16488;52.396;10.696;2023-04-07T12:12:44;17.80;48.00
29551;DHT22;16488;52.396;10.696;2023-04-07T12:15:10;18.10;50.10
29551;DHT22;16488;52.396;10.696;2023-04-07T12:17:36;18.10;46.10
29551;DHT22;16488;52.396;10.696;2023-04-07T12:20:01;17.50;46.80
29551;DHT22;16488;52.396;10.696;2023-04-07T12:22:27;16.90;47.50
29551;DHT22;16488;52.396;10.696;2023-04-07T12:24:52;17.10;49.50
29551;DHT22;16488;52.396;10.696;2023-04-07T12:27:18;17.80;48.50
29551;DHT22;16488;52.396;10.696;2023-04-07T12:29:43;17.70;47.50
29551;DHT22;16488;52.396;10.696;2023-04-07T12:32:09;16.90;47.40
29551;DHT22;16488;52.396;10.696;2023-04-07T12:34:34;16.70;48.50
29551;DHT22;16488;52.396;10.696;2023-04-07T12:37:01;16.80;49.50
29551;DHT22;16488;52.396;10.696;2023-04-07T12:39:27;17.00;48.00
29551;DHT22;16488;52.396;10.696;2023-04-07T12:41:52;17.30;47.80
29551;DHT22;16488;52.396;10.696;2023-04-07T12:44:18;17.10;47.80
29551;DHT22;16488;52.396;10.696;2023-04-07T12:46:43;16.60;48.50
29551;DHT22;16488;52.396;10.696;2023-04-07T12:49:09;16.60;50.00
29551;DHT22;16488;52.396;10.696;2023-04-07T12:51:35;16.50;50.80
29551;DHT22;16488;52.396;10.696;2023-04-07T12:54:01;16.70;49.70
29551;DHT22;16488;52.396;10.696;2023-04-07T12:56:28;16.80;50.00
29551;DHT22;16488;52.396;10.696;2023-04-07T12:58:54;17.10;48.40
29551;DHT22;16488;52.396;10.696;2023-04-07T13:01:19;17.10;49.20
29551;DHT22;16488;52.396;10.696;2023-04-07T13:03:45;17.30;47.70
29551;DHT22;16488;52.396;10.696;2023-04-07T13:06:11;17.30;48.80
29551;DHT22;16488;52.396;10.696;2023-04-07T13:08:37;16.90;48.50
29551;DHT22;16488;52.396;10.696;2023-04-07T13:11:02;16.70;48.80
29551;DHT22;16488;52.396;10.696;2023-04-07T13:13:28;16.50;49.90
29551;DHT22;16488;52.396;10.696;2023-04-07T13:15:53;16.10;49.00
29551;DHT22;16488;52.396;10.696;2023-04-07T13:18:19;15.80;49.40
29551;DHT22;16488;52.396;10.696;2023-04-07T13:20:44;15.80;50.30
29551;DHT22;16488;52.396;10.696;2023-04-07T13:23:10;15.90;50.80
29551;DHT22;16488;52.396;10.696;2023-04-07T13:25:36;16.20;51.00
29551;DHT22;16488;52.396;10.696;2023-04-07T13:28:01;16.40;49.30
29551;DHT22;16488;52.396;10.696;2023-04-07T13:30:27;16.70;49.00
29551;DHT22;16488;52.396;10.696;2023-04-07T13:32:52;16.30;49.20
29551;DHT22;16488;52.396;10.696;2023-04-07T13:35:18;16.60;50.00
29551;DHT22;16488;52.396;10.696;2023-04-07T13:37:43;16.70;49.30
29551;DHT22;16488;52.396;10.696;2023-04-07T13:40:09;16.80;50.10
29551;DHT22;16488;52.396;10.696;2023-04-07T13:42:37;17.30;49.30
29551;DHT22;16488;52.396;10.696;2023-04-07T13:45:02;17.60;48.30
29551;DHT22;16488;52.396;10.696;2023-04-07T13:47:28;17.50;48.80
29551;DHT22;16488;52.396;10.696;2023-04-07T13:49:58;17.70;49.70
29551;DHT22;16488;52.396;10.696;2023-04-07T13:52:24;17.70;47.60
29551;DHT22;16488;52.396;10.696;2023-04-07T13:54:49;17.10;48.00
29551;DHT22;16488;52.396;10.696;2023-04-07T13:57:15;16.90;49.00
29551;DHT22;16488;52.396;10.696;2023-04-07T13:59:48;17.20;50.20
29551;DHT22;16488;52.396;10.696;2023-04-07T14:02:16;17.20;47.70
29551;DHT22;16488;52.396;10.696;2023-04-07T14:04:42;16.90;48.40
29551;DHT22;16488;52.396;10.696;2023-04-07T14:07:07;17.20;50.20
29551;DHT22;16488;52.396;10.696;2023-04-07T14:09:33;17.60;48.20
29551;DHT22;16488;52.396;10.696;2023-04-07T14:11:59;17.80;47.60
29551;DHT22;16488;52.396;10.696;2023-04-07T14:14:25;18.20;46.80
29551;DHT22;16488;52.396;10.696;2023-04-07T14:16:50;19.60;45.60
29551;DHT22;16488;52.396;10.696;2023-04-07T14:19:20;20.30;44.00
29551;DHT22;16488;52.396;10.696;2023-04-07T14:21:48;20.20;42.00
29551;DHT22;16488;52.396;10.696;2023-04-07T14:24:14;19.30;43.50
29551;DHT22;16488;52.396;10.696;2023-04-07T14:26:39;18.60;45.60
29551;DHT22;16488;52.396;10.696;2023-04-07T14:29:06;17.80;45.80
29551;DHT22;16488;52.396;10.696;2023-04-07T14:31:32;17.90;46.70
29551;DHT22;16488;52.396;10.696;2023-04-07T14:33:57;18.10;47.10
29551;DHT22;16488;52.396;10.696;2023-04-07T14:36:24;18.30;47.10
29551;DHT22;16488;52.396;10.696;2023-04-07T14:38:49;17.50;46.40
29551;DHT22;16488;52.396;10.696;2023-04-07T14:41:15;16.60;48.10
29551;DHT22;16488;52.396;10.696;2023-04-07T14:43:42;16.30;49.20
29551;DHT22;16488;52.396;10.696;2023-04-07T14:46:08;16.40;48.70
29551;DHT22;16488;52.396;10.696;2023-04-07T14:48:33;16.20;49.10
29551;DHT22;16488;52.396;10.696;2023-04-07T14:50:59;15.90;48.50
29551;DHT22;16488;52.396;10.696;2023-04-07T14:53:24;15.50;48.80
29551;DHT22;16488;52.396;10.696;2023-04-07T14:55:51;15.30;50.80
29551;DHT22;16488;52.396;10.696;2023-04-07T14:58:16;14.80;51.10
29551;DHT22;16488;52.396;10.696;2023-04-07T15:00:41;14.50;52.50
29551;DHT22;16488;52.396;10.696;2023-04-07T15:03:07;14.20;52.90
29551;DHT22;16488;52.396;10.696;2023-04-07T15:05:33;14.00;53.30
29551;DHT22;16488;52.396;10.696;2023-04-07T15:07:58;14.00;53.80
29551;DHT22;16488;52.396;10.696;2023-04-07T15:10:24;14.10;54.00
29551;DHT22;16488;52.396;10.696;2023-04-07T15:12:49;14.40;53.40
29551;DHT22;16488;52.396;10.696;2023-04-07T15:15:15;14.20;52.80
29551;DHT22;16488;52.396;10.696;2023-04-07T15:17:40;14.70;52.80
29551;DHT22;16488;52.396;10.696;2023-04-07T15:20:06;15.60;51.90
29551;DHT22;16488;52.396;10.696;2023-04-07T15:22:32;15.80;50.60
29551;DHT22;16488;52.396;10.696;2023-04-07T15:24:57;15.50;52.00
29551;DHT22;16488;52.396;10.696;2023-04-07T15:27:23;14.90;54.60
29551;DHT22;16488;52.396;10.696;2023-04-07T15:29:48;14.90;54.80
29551;DHT22;16488;52.396;10.696;2023-04-07T15:32:14;15.40;54.30
29551;DHT22;16488;52.396;10.696;2023-04-07T15:34:40;15.50;54.00
29551;DHT22;16488;52.396;10.696;2023-04-07T15:37:05;16.10;53.10